Aviation Digital Data Service (ADDS)

Output produced by METARs form (0534 UTC 19 March 2019)
found at http://www.aviationweather.gov/metar/data/
 
METAR text: ZUUU 190500Z 14002MPS 090V170 4000 HZ FEW023TCU SCT023 17/11 Q1004 NOSIG
Conditions at: ZUUU (CHENGDU , CN) observed 0500 UTC 19 March 2019
Temperature: 17.0°C (63°F)
Dewpoint: 11.0°C (52°F) [RH = 68%]
Pressure (altimeter): 29.65 inches Hg (1004.0 mb)
Winds: from the SE (140 degrees) at 5 MPH (4 knots; 2.1 m/s)
Visibility: 2.49 miles (4.01 km)
Ceiling: at least 12,000 feet AGL
Clouds: few clouds at 2300 feet AGL
scattered clouds at 2300 feet AGL
Weather: HZ  (haze)

METAR text: ZUUU 190400Z VRB01MPS 4000 HZ FEW023TCU SCT023 18/11 Q1006 NOSIG
Conditions at: ZUUU (CHENGDU , CN) observed 0400 UTC 19 March 2019
Temperature: 18.0°C (64°F)
Dewpoint: 11.0°C (52°F) [RH = 64%]
Pressure (altimeter): 29.70 inches Hg (1006.0 mb)
Winds: variable direction winds at 2 MPH (2 knots; 1.0 m/s)
Visibility: 2.49 miles (4.01 km)
Ceiling: at least 12,000 feet AGL
Clouds: few clouds at 2300 feet AGL
scattered clouds at 2300 feet AGL
Weather: HZ  (haze)

METAR text: ZUUU 190300Z VRB02MPS 4000 BR NSC 16/11 Q1007 NOSIG
Conditions at: ZUUU (CHENGDU , CN) observed 0300 UTC 19 March 2019
Temperature: 16.0°C (61°F)
Dewpoint: 11.0°C (52°F) [RH = 72%]
Pressure (altimeter): 29.73 inches Hg (1007.0 mb)
Winds: variable direction winds at 5 MPH (4 knots; 2.1 m/s)
Visibility: 2.49 miles (4.01 km)
Ceiling: at least 12,000 feet AGL
Clouds: sky clear below 12,000 feet AGL
Weather: BR  (mist)

METAR text: ZUUU 190200Z 00000MPS 3000 BR NSC 15/11 Q1008 NOSIG
Conditions at: ZUUU (CHENGDU , CN) observed 0200 UTC 19 March 2019
Temperature: 15.0°C (59°F)
Dewpoint: 11.0°C (52°F) [RH = 77%]
Pressure (altimeter): 29.76 inches Hg (1008.0 mb)
Winds: calm
Visibility: 1.86 miles (2.99 km)
Ceiling: at least 12,000 feet AGL
Clouds: sky clear below 12,000 feet AGL
Weather: BR  (mist)

METAR text: ZUUU 190100Z 22001MPS 2800 BR SCT050 14/12 Q1008 BECMG TL0130 3000
Conditions at: ZUUU (CHENGDU , CN) observed 0100 UTC 19 March 2019
Temperature: 14.0°C (57°F)
Dewpoint: 12.0°C (54°F) [RH = 88%]
Pressure (altimeter): 29.76 inches Hg (1008.0 mb)
Winds: from the SW (220 degrees) at 2 MPH (2 knots; 1.0 m/s)
Visibility: 1.74 miles (2.80 km)
Ceiling: at least 12,000 feet AGL
Clouds: scattered clouds at 5000 feet AGL
Weather: BR  (mist)

METAR text: ZUUU 190000Z 23001MPS 2800 BR SCT050 13/12 Q1008 BECMG TL0110 3000
Conditions at: ZUUU (CHENGDU , CN) observed 0000 UTC 19 March 2019
Temperature: 13.0°C (55°F)
Dewpoint: 12.0°C (54°F) [RH = 94%]
Pressure (altimeter): 29.76 inches Hg (1008.0 mb)
Winds: from the SW (230 degrees) at 2 MPH (2 knots; 1.0 m/s)
Visibility: 1.74 miles (2.80 km)
Ceiling: at least 12,000 feet AGL
Clouds: scattered clouds at 5000 feet AGL
Weather: BR  (mist)

METAR text: ZUUU 182300Z 21001MPS 4000 BR SCT050 13/11 Q1008 NOSIG
Conditions at: ZUUU (CHENGDU , CN) observed 2300 UTC 18 March 2019
Temperature: 13.0°C (55°F)
Dewpoint: 11.0°C (52°F) [RH = 88%]
Pressure (altimeter): 29.76 inches Hg (1008.0 mb)
Winds: from the SSW (210 degrees) at 2 MPH (2 knots; 1.0 m/s)
Visibility: 2.49 miles (4.01 km)
Ceiling: at least 12,000 feet AGL
Clouds: scattered clouds at 5000 feet AGL
Weather: BR  (mist)

METAR text: ZUUU 182200Z 21001MPS 4000 BR BKN050 12/11 Q1008 NOSIG
Conditions at: ZUUU (CHENGDU , CN) observed 2200 UTC 18 March 2019
Temperature: 12.0°C (54°F)
Dewpoint: 11.0°C (52°F) [RH = 94%]
Pressure (altimeter): 29.76 inches Hg (1008.0 mb)
Winds: from the SSW (210 degrees) at 2 MPH (2 knots; 1.0 m/s)
Visibility: 2.49 miles (4.01 km)
Ceiling: 5000 feet AGL
Clouds: broken clouds at 5000 feet AGL
Weather: BR  (mist)

METAR text: ZUUU 182100Z 00000MPS 4000 BR BKN050 13/11 Q1008 NOSIG
Conditions at: ZUUU (CHENGDU , CN) observed 2100 UTC 18 March 2019
Temperature: 13.0°C (55°F)
Dewpoint: 11.0°C (52°F) [RH = 88%]
Pressure (altimeter): 29.76 inches Hg (1008.0 mb)
Winds: calm
Visibility: 2.49 miles (4.01 km)
Ceiling: 5000 feet AGL
Clouds: broken clouds at 5000 feet AGL
Weather: BR  (mist)

METAR text: ZUUU 182000Z VRB01MPS 4000 BR BKN050 13/11 Q1009 NOSIG
Conditions at: ZUUU (CHENGDU , CN) observed 2000 UTC 18 March 2019
Temperature: 13.0°C (55°F)
Dewpoint: 11.0°C (52°F) [RH = 88%]
Pressure (altimeter): 29.79 inches Hg (1009.0 mb)
Winds: variable direction winds at 2 MPH (2 knots; 1.0 m/s)
Visibility: 2.49 miles (4.01 km)
Ceiling: 5000 feet AGL
Clouds: broken clouds at 5000 feet AGL
Weather: BR  (mist)

METAR text: ZUUU 181900Z 00000MPS 4000 BR BKN050 13/11 Q1010 NOSIG
Conditions at: ZUUU (CHENGDU , CN) observed 1900 UTC 18 March 2019
Temperature: 13.0°C (55°F)
Dewpoint: 11.0°C (52°F) [RH = 88%]
Pressure (altimeter): 29.82 inches Hg (1010.0 mb)
Winds: calm
Visibility: 2.49 miles (4.01 km)
Ceiling: 5000 feet AGL
Clouds: broken clouds at 5000 feet AGL
Weather: BR  (mist)

METAR text: ZUUU 181800Z VRB01MPS 4000 BR SCT050 14/11 Q1011 NOSIG
Conditions at: ZUUU (CHENGDU , CN) observed 1800 UTC 18 March 2019
Temperature: 14.0°C (57°F)
Dewpoint: 11.0°C (52°F) [RH = 82%]
Pressure (altimeter): 29.85 inches Hg (1011.0 mb)
Winds: variable direction winds at 2 MPH (2 knots; 1.0 m/s)
Visibility: 2.49 miles (4.01 km)
Ceiling: at least 12,000 feet AGL
Clouds: scattered clouds at 5000 feet AGL
Weather: BR  (mist)

METAR text: ZUUU 181700Z 21001MPS 4000 BR SCT050 13/11 Q1012 NOSIG
Conditions at: ZUUU (CHENGDU , CN) observed 1700 UTC 18 March 2019
Temperature: 13.0°C (55°F)
Dewpoint: 11.0°C (52°F) [RH = 88%]
Pressure (altimeter): 29.88 inches Hg (1012.0 mb)
Winds: from the SSW (210 degrees) at 2 MPH (2 knots; 1.0 m/s)
Visibility: 2.49 miles (4.01 km)
Ceiling: at least 12,000 feet AGL
Clouds: scattered clouds at 5000 feet AGL
Weather: BR  (mist)

METAR text: ZUUU 181600Z 00000MPS 5000 BR SCT050 14/11 Q1013 NOSIG
Conditions at: ZUUU (CHENGDU , CN) observed 1600 UTC 18 March 2019
Temperature: 14.0°C (57°F)
Dewpoint: 11.0°C (52°F) [RH = 82%]
Pressure (altimeter): 29.91 inches Hg (1013.0 mb)
Winds: calm
Visibility: 3 miles ( 5 km)
Ceiling: at least 12,000 feet AGL
Clouds: scattered clouds at 5000 feet AGL
Weather: BR  (mist)

METAR text: ZUUU 181500Z 00000MPS 5000 BR SCT050 14/11 Q1014 NOSIG
Conditions at: ZUUU (CHENGDU , CN) observed 1500 UTC 18 March 2019
Temperature: 14.0°C (57°F)
Dewpoint: 11.0°C (52°F) [RH = 82%]
Pressure (altimeter): 29.94 inches Hg (1014.0 mb)
Winds: calm
Visibility: 3 miles ( 5 km)
Ceiling: at least 12,000 feet AGL
Clouds: scattered clouds at 5000 feet AGL
Weather: BR  (mist)

METAR text: ZUUU 181400Z 00000MPS 6000 SCT050 14/11 Q1014 NOSIG
Conditions at: ZUUU (CHENGDU , CN) observed 1400 UTC 18 March 2019
Temperature: 14.0°C (57°F)
Dewpoint: 11.0°C (52°F) [RH = 82%]
Pressure (altimeter): 29.94 inches Hg (1014.0 mb)
Winds: calm
Visibility: 4 miles ( 6 km)
Ceiling: at least 12,000 feet AGL
Clouds: scattered clouds at 5000 feet AGL
Weather: no significant weather observed at this time

METAR text: ZUUU 181300Z 00000MPS 6000 SCT050 15/11 Q1014 NOSIG
Conditions at: ZUUU (CHENGDU , CN) observed 1300 UTC 18 March 2019
Temperature: 15.0°C (59°F)
Dewpoint: 11.0°C (52°F) [RH = 77%]
Pressure (altimeter): 29.94 inches Hg (1014.0 mb)
Winds: calm
Visibility: 4 miles ( 6 km)
Ceiling: at least 12,000 feet AGL
Clouds: scattered clouds at 5000 feet AGL
Weather: no significant weather observed at this time

METAR text: ZUUU 181200Z VRB01MPS 6000 SCT050 16/10 Q1014 NOSIG
Conditions at: ZUUU (CHENGDU , CN) observed 1200 UTC 18 March 2019
Temperature: 16.0°C (61°F)
Dewpoint: 10.0°C (50°F) [RH = 68%]
Pressure (altimeter): 29.94 inches Hg (1014.0 mb)
Winds: variable direction winds at 2 MPH (2 knots; 1.0 m/s)
Visibility: 4 miles ( 6 km)
Ceiling: at least 12,000 feet AGL
Clouds: scattered clouds at 5000 feet AGL
Weather: no significant weather observed at this time

METAR text: ZUUU 181100Z VRB01MPS 6000 SCT050 16/10 Q1014 NOSIG
Conditions at: ZUUU (CHENGDU , CN) observed 1100 UTC 18 March 2019
Temperature: 16.0°C (61°F)
Dewpoint: 10.0°C (50°F) [RH = 68%]
Pressure (altimeter): 29.94 inches Hg (1014.0 mb)
Winds: variable direction winds at 2 MPH (2 knots; 1.0 m/s)
Visibility: 4 miles ( 6 km)
Ceiling: at least 12,000 feet AGL
Clouds: scattered clouds at 5000 feet AGL
Weather: no significant weather observed at this time

METAR text: ZUUU 181000Z 00000MPS 6000 SCT050 17/10 Q1014 NOSIG
Conditions at: ZUUU (CHENGDU , CN) observed 1000 UTC 18 March 2019
Temperature: 17.0°C (63°F)
Dewpoint: 10.0°C (50°F) [RH = 63%]
Pressure (altimeter): 29.94 inches Hg (1014.0 mb)
Winds: calm
Visibility: 4 miles ( 6 km)
Ceiling: at least 12,000 feet AGL
Clouds: scattered clouds at 5000 feet AGL
Weather: no significant weather observed at this time

METAR text: ZUUU 180900Z 00000MPS 6000 SCT040 17/10 Q1014 NOSIG
Conditions at: ZUUU (CHENGDU , CN) observed 0900 UTC 18 March 2019
Temperature: 17.0°C (63°F)
Dewpoint: 10.0°C (50°F) [RH = 63%]
Pressure (altimeter): 29.94 inches Hg (1014.0 mb)
Winds: calm
Visibility: 4 miles ( 6 km)
Ceiling: at least 12,000 feet AGL
Clouds: scattered clouds at 4000 feet AGL
Weather: no significant weather observed at this time

METAR text: ZUUU 180800Z 29002MPS 260V340 6000 FEW033TCU FEW033 17/10 Q1015 NOSIG
Conditions at: ZUUU (CHENGDU , CN) observed 0800 UTC 18 March 2019
Temperature: 17.0°C (63°F)
Dewpoint: 10.0°C (50°F) [RH = 63%]
Pressure (altimeter): 29.97 inches Hg (1015.0 mb)
Winds: from the WNW (290 degrees) at 5 MPH (4 knots; 2.1 m/s)
Visibility: 4 miles ( 6 km)
Ceiling: at least 12,000 feet AGL
Clouds: few clouds at 3300 feet AGL
few clouds at 3300 feet AGL
Weather: no significant weather observed at this time

METAR text: ZUUU 180700Z 28002MPS 210V360 6000 FEW026 17/11 Q1016 NOSIG
Conditions at: ZUUU (CHENGDU , CN) observed 0700 UTC 18 March 2019
Temperature: 17.0°C (63°F)
Dewpoint: 11.0°C (52°F) [RH = 68%]
Pressure (altimeter): 30.00 inches Hg (1016.0 mb)
Winds: from the W (280 degrees) at 5 MPH (4 knots; 2.1 m/s)
Visibility: 4 miles ( 6 km)
Ceiling: at least 12,000 feet AGL
Clouds: few clouds at 2600 feet AGL
Weather: no significant weather observed at this time

METAR text: ZUUU 180600Z VRB01MPS 6000 FEW026 18/10 Q1017 NOSIG
Conditions at: ZUUU (CHENGDU , CN) observed 0600 UTC 18 March 2019
Temperature: 18.0°C (64°F)
Dewpoint: 10.0°C (50°F) [RH = 59%]
Pressure (altimeter): 30.03 inches Hg (1017.0 mb)
Winds: variable direction winds at 2 MPH (2 knots; 1.0 m/s)
Visibility: 4 miles ( 6 km)
Ceiling: at least 12,000 feet AGL
Clouds: few clouds at 2600 feet AGL
Weather: no significant weather observed at this time

METAR text: ZUUU 180500Z VRB01MPS 5000 HZ FEW026 17/10 Q1019 NOSIG
Conditions at: ZUUU (CHENGDU , CN) observed 0500 UTC 18 March 2019
Temperature: 17.0°C (63°F)
Dewpoint: 10.0°C (50°F) [RH = 63%]
Pressure (altimeter): 30.09 inches Hg (1019.0 mb)
Winds: variable direction winds at 2 MPH (2 knots; 1.0 m/s)
Visibility: 3 miles ( 5 km)
Ceiling: at least 12,000 feet AGL
Clouds: few clouds at 2600 feet AGL
Weather: HZ  (haze)

METAR text: ZUUU 180400Z VRB01MPS 5000 BR FEW026 16/11 Q1020 NOSIG
Conditions at: ZUUU (CHENGDU , CN) observed 0400 UTC 18 March 2019
Temperature: 16.0°C (61°F)
Dewpoint: 11.0°C (52°F) [RH = 72%]
Pressure (altimeter): 30.12 inches Hg (1020.0 mb)
Winds: variable direction winds at 2 MPH (2 knots; 1.0 m/s)
Visibility: 3 miles ( 5 km)
Ceiling: at least 12,000 feet AGL
Clouds: few clouds at 2600 feet AGL
Weather: BR  (mist)

METAR text: ZUUU 180300Z 00000MPS 3000 BR NSC 15/11 Q1021 NOSIG
Conditions at: ZUUU (CHENGDU , CN) observed 0300 UTC 18 March 2019
Temperature: 15.0°C (59°F)
Dewpoint: 11.0°C (52°F) [RH = 77%]
Pressure (altimeter): 30.15 inches Hg (1021.0 mb)
Winds: calm
Visibility: 1.86 miles (2.99 km)
Ceiling: at least 12,000 feet AGL
Clouds: sky clear below 12,000 feet AGL
Weather: BR  (mist)

METAR text: ZUUU 180200Z 00000MPS 2500 BR NSC 14/11 Q1021 BECMG TL0230 3000
Conditions at: ZUUU (CHENGDU , CN) observed 0200 UTC 18 March 2019
Temperature: 14.0°C (57°F)
Dewpoint: 11.0°C (52°F) [RH = 82%]
Pressure (altimeter): 30.15 inches Hg (1021.0 mb)
Winds: calm
Visibility: 1.55 miles (2.49 km)
Ceiling: at least 12,000 feet AGL
Clouds: sky clear below 12,000 feet AGL
Weather: BR  (mist)

METAR text: ZUUU 180100Z 00000MPS 2500 BR SCT050 13/12 Q1021 BECMG TL0130 3000
Conditions at: ZUUU (CHENGDU , CN) observed 0100 UTC 18 March 2019
Temperature: 13.0°C (55°F)
Dewpoint: 12.0°C (54°F) [RH = 94%]
Pressure (altimeter): 30.15 inches Hg (1021.0 mb)
Winds: calm
Visibility: 1.55 miles (2.49 km)
Ceiling: at least 12,000 feet AGL
Clouds: scattered clouds at 5000 feet AGL
Weather: BR  (mist)

METAR text: ZUUU 180000Z 00000MPS 2200 BR SCT050 11/11 Q1020 BECMG TL0100 3000
Conditions at: ZUUU (CHENGDU , CN) observed 0000 UTC 18 March 2019
Temperature: 11.0°C (52°F)
Dewpoint: 11.0°C (52°F) [RH = 100%]
Pressure (altimeter): 30.12 inches Hg (1020.0 mb)
Winds: calm
Visibility: 1.37 miles (2.20 km)
Ceiling: at least 12,000 feet AGL
Clouds: scattered clouds at 5000 feet AGL
Weather: BR  (mist)

METAR text: ZUUU 172300Z VRB01MPS 4000 BR SCT050 10/09 Q1019 NOSIG
Conditions at: ZUUU (CHENGDU , CN) observed 2300 UTC 17 March 2019
Temperature: 10.0°C (50°F)
Dewpoint: 9.0°C (48°F) [RH = 93%]
Pressure (altimeter): 30.09 inches Hg (1019.0 mb)
Winds: variable direction winds at 2 MPH (2 knots; 1.0 m/s)
Visibility: 2.49 miles (4.01 km)
Ceiling: at least 12,000 feet AGL
Clouds: scattered clouds at 5000 feet AGL
Weather: BR  (mist)

METAR text: ZUUU 172200Z 00000MPS 4500 BR SCT050 10/10 Q1019 NOSIG
Conditions at: ZUUU (CHENGDU , CN) observed 2200 UTC 17 March 2019
Temperature: 10.0°C (50°F)
Dewpoint: 10.0°C (50°F) [RH = 100%]
Pressure (altimeter): 30.09 inches Hg (1019.0 mb)
Winds: calm
Visibility: 2.80 miles (4.51 km)
Ceiling: at least 12,000 feet AGL
Clouds: scattered clouds at 5000 feet AGL
Weather: BR  (mist)

METAR text: ZUUU 172100Z 00000MPS 4500 BR SCT050 10/10 Q1019 NOSIG
Conditions at: ZUUU (CHENGDU , CN) observed 2100 UTC 17 March 2019
Temperature: 10.0°C (50°F)
Dewpoint: 10.0°C (50°F) [RH = 100%]
Pressure (altimeter): 30.09 inches Hg (1019.0 mb)
Winds: calm
Visibility: 2.80 miles (4.51 km)
Ceiling: at least 12,000 feet AGL
Clouds: scattered clouds at 5000 feet AGL
Weather: BR  (mist)

METAR text: ZUUU 172000Z 00000MPS 5000 BR NSC 09/09 Q1019 NOSIG
Conditions at: ZUUU (CHENGDU , CN) observed 2000 UTC 17 March 2019
Temperature: 9.0°C (48°F)
Dewpoint: 9.0°C (48°F) [RH = 100%]
Pressure (altimeter): 30.09 inches Hg (1019.0 mb)
Winds: calm
Visibility: 3 miles ( 5 km)
Ceiling: at least 12,000 feet AGL
Clouds: sky clear below 12,000 feet AGL
Weather: BR  (mist)

METAR text: ZUUU 171900Z 00000MPS 5000 BR NSC 09/09 Q1020 NOSIG
Conditions at: ZUUU (CHENGDU , CN) observed 1900 UTC 17 March 2019
Temperature: 9.0°C (48°F)
Dewpoint: 9.0°C (48°F) [RH = 100%]
Pressure (altimeter): 30.12 inches Hg (1020.0 mb)
Winds: calm
Visibility: 3 miles ( 5 km)
Ceiling: at least 12,000 feet AGL
Clouds: sky clear below 12,000 feet AGL
Weather: BR  (mist)

METAR text: ZUUU 171800Z 21001MPS 6000 NSC 10/09 Q1021 NOSIG
Conditions at: ZUUU (CHENGDU , CN) observed 1800 UTC 17 March 2019
Temperature: 10.0°C (50°F)
Dewpoint: 9.0°C (48°F) [RH = 93%]
Pressure (altimeter): 30.15 inches Hg (1021.0 mb)
Winds: from the SSW (210 degrees) at 2 MPH (2 knots; 1.0 m/s)
Visibility: 4 miles ( 6 km)
Ceiling: at least 12,000 feet AGL
Clouds: sky clear below 12,000 feet AGL
Weather: no significant weather observed at this time

Forecast for: ZUUU (CHENGDU , CN)
Text: TAF ZUUU 190209Z 1906/2006 20003MPS 5000 BR SCT050 TX19/1907Z TN10/1922Z
Forecast period: 0600 UTC 19 March 2019 to 0600 UTC 20 March 2019
Forecast type: FROM: standard forecast or significant change
Winds: from the SSW (200 degrees) at 7 MPH (6 knots; 3.1 m/s)
Visibility: 3 miles (5 km)
Ceiling: at least 12,000 feet AGL
Clouds: scattered clouds at 5000 feet AGL
Weather: BR  (mist)